sensor_id;sensor_type;location;lat;lon;timestamp;P1;durP1;ratioP1;P2;durP2;ratioP2
83263;SDS011;73156;50.988;11.034;2023-12-29T00:01:53;47.45;;;31.17;;
83263;SDS011;73156;50.988;11.034;2023-12-29T00:04:18;50.87;;;32.73;;
83263;SDS011;73156;50.988;11.034;2023-12-29T00:06:44;47.50;;;29.77;;
83263;SDS011;73156;50.988;11.034;2023-12-29T00:09:09;47.57;;;30.23;;
83263;SDS011;73156;50.988;11.034;2023-12-29T00:11:34;46.60;;;30.93;;
83263;SDS011;73156;50.988;11.034;2023-12-29T00:13:59;47.95;;;30.60;;
83263;SDS011;73156;50.988;11.034;2023-12-29T00:16:27;45.20;;;30.53;;
83263;SDS011;73156;50.988;11.034;2023-12-29T00:18:52;46.95;;;29.92;;
83263;SDS011;73156;50.988;11.034;2023-12-29T00:21:18;46.77;;;30.50;;
83263;SDS011;73156;50.988;11.034;2023-12-29T00:23:43;49.63;;;32.00;;
83263;SDS011;73156;50.988;11.034;2023-12-29T00:26:08;45.63;;;31.30;;
83263;SDS011;73156;50.988;11.034;2023-12-29T00:28:34;46.17;;;30.77;;
83263;SDS011;73156;50.988;11.034;2023-12-29T00:33:26;45.07;;;29.57;;
83263;SDS011;73156;50.988;11.034;2023-12-29T00:35:52;44.38;;;29.38;;
83263;SDS011;73156;50.988;11.034;2023-12-29T00:38:17;46.27;;;29.33;;
83263;SDS011;73156;50.988;11.034;2023-12-29T00:40:42;45.58;;;30.58;;
83263;SDS011;73156;50.988;11.034;2023-12-29T00:43:08;44.50;;;29.93;;
83263;SDS011;73156;50.988;11.034;2023-12-29T00:45:33;46.03;;;30.17;;
83263;SDS011;73156;50.988;11.034;2023-12-29T00:48:01;46.00;;;30.02;;
83263;SDS011;73156;50.988;11.034;2023-12-29T00:50:27;42.70;;;28.77;;
83263;SDS011;73156;50.988;11.034;2023-12-29T00:52:52;45.25;;;30.75;;
83263;SDS011;73156;50.988;11.034;2023-12-29T00:55:17;44.63;;;30.30;;
83263;SDS011;73156;50.988;11.034;2023-12-29T00:57:43;45.20;;;29.93;;
83263;SDS011;73156;50.988;11.034;2023-12-29T01:00:10;46.65;;;30.73;;
83263;SDS011;73156;50.988;11.034;2023-12-29T01:02:36;44.33;;;29.55;;
83263;SDS011;73156;50.988;11.034;2023-12-29T01:05:02;45.22;;;30.25;;
83263;SDS011;73156;50.988;11.034;2023-12-29T01:07:27;45.63;;;30.30;;
83263;SDS011;73156;50.988;11.034;2023-12-29T01:09:53;46.53;;;30.00;;
83263;SDS011;73156;50.988;11.034;2023-12-29T01:12:18;48.47;;;31.33;;
83263;SDS011;73156;50.988;11.034;2023-12-29T01:14:43;43.43;;;29.17;;
83263;SDS011;73156;50.988;11.034;2023-12-29T01:17:08;48.47;;;31.00;;
83263;SDS011;73156;50.988;11.034;2023-12-29T01:19:34;43.70;;;29.20;;
83263;SDS011;73156;50.988;11.034;2023-12-29T01:21:59;45.07;;;30.30;;
83263;SDS011;73156;50.988;11.034;2023-12-29T01:24:24;46.55;;;31.05;;
83263;SDS011;73156;50.988;11.034;2023-12-29T01:26:49;43.25;;;29.35;;
83263;SDS011;73156;50.988;11.034;2023-12-29T01:29:15;46.07;;;29.80;;
83263;SDS011;73156;50.988;11.034;2023-12-29T01:31:40;42.07;;;28.80;;
83263;SDS011;73156;50.988;11.034;2023-12-29T01:34:05;44.07;;;29.27;;
83263;SDS011;73156;50.988;11.034;2023-12-29T01:36:30;46.30;;;29.03;;
83263;SDS011;73156;50.988;11.034;2023-12-29T01:38:56;43.27;;;29.10;;
83263;SDS011;73156;50.988;11.034;2023-12-29T01:41:21;41.03;;;28.20;;
83263;SDS011;73156;50.988;11.034;2023-12-29T01:46:25;42.88;;;27.83;;
83263;SDS011;73156;50.988;11.034;2023-12-29T01:48:53;45.00;;;29.35;;
83263;SDS011;73156;50.988;11.034;2023-12-29T01:51:19;42.17;;;27.23;;
83263;SDS011;73156;50.988;11.034;2023-12-29T01:53:47;42.80;;;27.75;;
83263;SDS011;73156;50.988;11.034;2023-12-29T01:56:13;43.72;;;29.25;;
83263;SDS011;73156;50.988;11.034;2023-12-29T01:58:38;40.10;;;27.13;;
83263;SDS011;73156;50.988;11.034;2023-12-29T02:01:04;40.22;;;27.58;;
83263;SDS011;73156;50.988;11.034;2023-12-29T02:05:57;42.72;;;27.42;;
83263;SDS011;73156;50.988;11.034;2023-12-29T02:08:23;41.75;;;27.63;;
83263;SDS011;73156;50.988;11.034;2023-12-29T02:10:48;42.33;;;27.45;;
83263;SDS011;73156;50.988;11.034;2023-12-29T02:13:14;41.33;;;27.52;;
83263;SDS011;73156;50.988;11.034;2023-12-29T02:15:39;40.00;;;26.90;;
83263;SDS011;73156;50.988;11.034;2023-12-29T02:18:06;38.80;;;25.48;;
83263;SDS011;73156;50.988;11.034;2023-12-29T02:20:32;41.63;;;27.52;;
83263;SDS011;73156;50.988;11.034;2023-12-29T02:22:58;38.97;;;27.65;;
83263;SDS011;73156;50.988;11.034;2023-12-29T02:25:23;39.83;;;27.25;;
83263;SDS011;73156;50.988;11.034;2023-12-29T02:27:51;37.88;;;25.92;;
83263;SDS011;73156;50.988;11.034;2023-12-29T02:33:10;41.10;;;26.83;;
83263;SDS011;73156;50.988;11.034;2023-12-29T02:35:41;42.40;;;26.58;;
83263;SDS011;73156;50.988;11.034;2023-12-29T02:38:08;38.88;;;25.08;;
83263;SDS011;73156;50.988;11.034;2023-12-29T02:40:35;37.40;;;25.70;;
83263;SDS011;73156;50.988;11.034;2023-12-29T02:43:01;40.27;;;25.97;;
83263;SDS011;73156;50.988;11.034;2023-12-29T02:45:26;36.47;;;25.73;;
83263;SDS011;73156;50.988;11.034;2023-12-29T02:47:52;37.72;;;25.02;;
83263;SDS011;73156;50.988;11.034;2023-12-29T02:50:17;38.10;;;25.27;;
83263;SDS011;73156;50.988;11.034;2023-12-29T02:52:43;38.95;;;26.23;;
83263;SDS011;73156;50.988;11.034;2023-12-29T02:55:08;38.38;;;25.33;;
83263;SDS011;73156;50.988;11.034;2023-12-29T02:57:34;38.83;;;25.33;;
83263;SDS011;73156;50.988;11.034;2023-12-29T02:59:59;36.55;;;25.40;;
83263;SDS011;73156;50.988;11.034;2023-12-29T03:02:25;36.42;;;25.23;;
83263;SDS011;73156;50.988;11.034;2023-12-29T03:04:50;35.45;;;24.45;;
83263;SDS011;73156;50.988;11.034;2023-12-29T03:07:16;35.22;;;23.88;;
83263;SDS011;73156;50.988;11.034;2023-12-29T03:09:41;37.43;;;26.10;;
83263;SDS011;73156;50.988;11.034;2023-12-29T03:12:06;33.42;;;23.70;;
83263;SDS011;73156;50.988;11.034;2023-12-29T03:14:32;36.72;;;25.10;;
83263;SDS011;73156;50.988;11.034;2023-12-29T03:16:57;34.08;;;23.52;;
83263;SDS011;73156;50.988;11.034;2023-12-29T03:19:23;35.92;;;25.17;;
83263;SDS011;73156;50.988;11.034;2023-12-29T03:21:48;33.43;;;23.10;;
83263;SDS011;73156;50.988;11.034;2023-12-29T03:24:13;33.47;;;23.02;;
83263;SDS011;73156;50.988;11.034;2023-12-29T03:26:39;36.15;;;24.38;;
83263;SDS011;73156;50.988;11.034;2023-12-29T03:29:04;34.60;;;23.63;;
83263;SDS011;73156;50.988;11.034;2023-12-29T03:31:29;37.57;;;24.67;;
83263;SDS011;73156;50.988;11.034;2023-12-29T03:33:55;33.57;;;22.97;;
83263;SDS011;73156;50.988;11.034;2023-12-29T03:36:20;35.00;;;22.73;;
83263;SDS011;73156;50.988;11.034;2023-12-29T03:38:45;34.80;;;22.57;;
83263;SDS011;73156;50.988;11.034;2023-12-29T03:41:10;33.08;;;23.08;;
83263;SDS011;73156;50.988;11.034;2023-12-29T03:43:36;33.35;;;22.70;;
83263;SDS011;73156;50.988;11.034;2023-12-29T03:46:01;32.28;;;22.08;;
83263;SDS011;73156;50.988;11.034;2023-12-29T03:48:26;32.33;;;22.47;;
83263;SDS011;73156;50.988;11.034;2023-12-29T03:50:52;34.10;;;23.73;;
83263;SDS011;73156;50.988;11.034;2023-12-29T03:53:17;31.33;;;21.87;;
83263;SDS011;73156;50.988;11.034;2023-12-29T03:55:44;30.80;;;21.40;;
83263;SDS011;73156;50.988;11.034;2023-12-29T03:58:09;29.83;;;20.75;;
83263;SDS011;73156;50.988;11.034;2023-12-29T04:00:35;32.85;;;21.70;;
83263;SDS011;73156;50.988;11.034;2023-12-29T04:03:00;32.83;;;21.95;;
83263;SDS011;73156;50.988;11.034;2023-12-29T04:05:26;31.87;;;21.90;;
83263;SDS011;73156;50.988;11.034;2023-12-29T04:07:51;31.77;;;22.03;;
83263;SDS011;73156;50.988;11.034;2023-12-29T04:10:16;33.00;;;21.50;;
83263;SDS011;73156;50.988;11.034;2023-12-29T04:12:41;30.58;;;21.35;;
83263;SDS011;73156;50.988;11.034;2023-12-29T04:15:07;29.90;;;20.60;;
83263;SDS011;73156;50.988;11.034;2023-12-29T04:17:32;28.67;;;20.23;;
83263;SDS011;73156;50.988;11.034;2023-12-29T04:19:58;30.47;;;20.83;;
83263;SDS011;73156;50.988;11.034;2023-12-29T04:22:24;32.83;;;21.98;;
83263;SDS011;73156;50.988;11.034;2023-12-29T04:24:50;29.10;;;20.95;;
83263;SDS011;73156;50.988;11.034;2023-12-29T04:27:15;32.90;;;21.30;;
83263;SDS011;73156;50.988;11.034;2023-12-29T04:29:40;29.93;;;20.00;;
83263;SDS011;73156;50.988;11.034;2023-12-29T04:32:06;28.90;;;19.63;;
83263;SDS011;73156;50.988;11.034;2023-12-29T04:34:31;29.10;;;18.93;;
83263;SDS011;73156;50.988;11.034;2023-12-29T04:36:56;29.67;;;21.27;;
83263;SDS011;73156;50.988;11.034;2023-12-29T04:39:21;29.07;;;19.70;;
83263;SDS011;73156;50.988;11.034;2023-12-29T04:41:47;29.80;;;19.75;;
83263;SDS011;73156;50.988;11.034;2023-12-29T04:44:12;28.77;;;20.37;;
83263;SDS011;73156;50.988;11.034;2023-12-29T04:46:37;27.60;;;19.50;;
83263;SDS011;73156;50.988;11.034;2023-12-29T04:49:02;27.27;;;19.40;;
83263;SDS011;73156;50.988;11.034;2023-12-29T04:51:28;28.67;;;19.47;;
83263;SDS011;73156;50.988;11.034;2023-12-29T04:53:53;29.58;;;19.38;;
83263;SDS011;73156;50.988;11.034;2023-12-29T04:56:18;26.70;;;18.35;;
83263;SDS011;73156;50.988;11.034;2023-12-29T04:58:44;27.93;;;18.77;;
83263;SDS011;73156;50.988;11.034;2023-12-29T05:01:09;27.87;;;18.67;;
83263;SDS011;73156;50.988;11.034;2023-12-29T05:03:34;28.23;;;19.20;;
83263;SDS011;73156;50.988;11.034;2023-12-29T05:05:59;29.40;;;19.90;;
83263;SDS011;73156;50.988;11.034;2023-12-29T05:08:25;26.63;;;18.10;;
83263;SDS011;73156;50.988;11.034;2023-12-29T05:10:50;25.67;;;17.97;;
83263;SDS011;73156;50.988;11.034;2023-12-29T05:13:15;27.98;;;18.30;;
83263;SDS011;73156;50.988;11.034;2023-12-29T05:15:41;26.83;;;18.20;;
83263;SDS011;73156;50.988;11.034;2023-12-29T05:18:06;26.77;;;18.20;;
83263;SDS011;73156;50.988;11.034;2023-12-29T05:20:31;27.63;;;18.63;;
83263;SDS011;73156;50.988;11.034;2023-12-29T05:22:57;27.27;;;18.13;;
83263;SDS011;73156;50.988;11.034;2023-12-29T05:25:23;26.97;;;18.37;;
83263;SDS011;73156;50.988;11.034;2023-12-29T05:27:49;25.30;;;16.95;;
83263;SDS011;73156;50.988;11.034;2023-12-29T05:30:14;26.33;;;17.60;;
83263;SDS011;73156;50.988;11.034;2023-12-29T05:32:40;25.85;;;17.05;;
83263;SDS011;73156;50.988;11.034;2023-12-29T05:35:05;24.73;;;16.77;;
83263;SDS011;73156;50.988;11.034;2023-12-29T05:37:30;25.85;;;16.88;;
83263;SDS011;73156;50.988;11.034;2023-12-29T05:39:56;24.83;;;17.10;;
83263;SDS011;73156;50.988;11.034;2023-12-29T05:42:21;26.23;;;17.90;;
83263;SDS011;73156;50.988;11.034;2023-12-29T05:44:46;26.07;;;17.53;;
83263;SDS011;73156;50.988;11.034;2023-12-29T05:47:11;25.77;;;17.97;;
83263;SDS011;73156;50.988;11.034;2023-12-29T05:49:37;25.02;;;17.10;;
83263;SDS011;73156;50.988;11.034;2023-12-29T05:52:07;23.85;;;16.08;;
83263;SDS011;73156;50.988;11.034;2023-12-29T05:54:32;24.83;;;16.50;;
83263;SDS011;73156;50.988;11.034;2023-12-29T05:56:58;25.33;;;16.75;;
83263;SDS011;73156;50.988;11.034;2023-12-29T05:59:24;25.00;;;16.90;;
83263;SDS011;73156;50.988;11.034;2023-12-29T06:01:49;23.37;;;16.00;;
83263;SDS011;73156;50.988;11.034;2023-12-29T06:04:14;26.07;;;17.03;;
83263;SDS011;73156;50.988;11.034;2023-12-29T06:06:41;24.37;;;16.43;;
83263;SDS011;73156;50.988;11.034;2023-12-29T06:09:08;23.80;;;16.55;;
83263;SDS011;73156;50.988;11.034;2023-12-29T06:11:34;23.95;;;16.15;;
83263;SDS011;73156;50.988;11.034;2023-12-29T06:13:59;27.25;;;17.50;;
83263;SDS011;73156;50.988;11.034;2023-12-29T06:16:25;25.23;;;16.45;;
83263;SDS011;73156;50.988;11.034;2023-12-29T06:18:51;22.65;;;15.73;;
83263;SDS011;73156;50.988;11.034;2023-12-29T06:21:17;22.53;;;16.03;;
83263;SDS011;73156;50.988;11.034;2023-12-29T06:23:42;23.40;;;15.85;;
83263;SDS011;73156;50.988;11.034;2023-12-29T06:26:17;23.97;;;16.40;;
83263;SDS011;73156;50.988;11.034;2023-12-29T06:28:44;24.58;;;16.60;;
83263;SDS011;73156;50.988;11.034;2023-12-29T06:31:10;22.15;;;15.95;;
83263;SDS011;73156;50.988;11.034;2023-12-29T06:33:35;26.15;;;16.90;;
83263;SDS011;73156;50.988;11.034;2023-12-29T06:36:00;23.53;;;15.97;;
83263;SDS011;73156;50.988;11.034;2023-12-29T06:38:26;24.00;;;16.35;;
83263;SDS011;73156;50.988;11.034;2023-12-29T06:40:51;24.50;;;16.43;;
83263;SDS011;73156;50.988;11.034;2023-12-29T06:43:16;22.93;;;16.13;;
83263;SDS011;73156;50.988;11.034;2023-12-29T06:45:42;20.87;;;14.93;;
83263;SDS011;73156;50.988;11.034;2023-12-29T06:48:07;23.80;;;16.17;;
83263;SDS011;73156;50.988;11.034;2023-12-29T06:50:32;22.30;;;15.53;;
83263;SDS011;73156;50.988;11.034;2023-12-29T06:52:57;22.13;;;15.63;;
83263;SDS011;73156;50.988;11.034;2023-12-29T06:55:23;22.03;;;15.90;;
83263;SDS011;73156;50.988;11.034;2023-12-29T06:57:50;22.85;;;15.70;;
83263;SDS011;73156;50.988;11.034;2023-12-29T07:00:15;23.87;;;15.30;;
83263;SDS011;73156;50.988;11.034;2023-12-29T07:02:41;22.48;;;15.73;;
83263;SDS011;73156;50.988;11.034;2023-12-29T07:05:06;20.30;;;14.70;;
83263;SDS011;73156;50.988;11.034;2023-12-29T07:07:32;21.88;;;14.73;;
83263;SDS011;73156;50.988;11.034;2023-12-29T07:09:57;22.33;;;16.00;;
83263;SDS011;73156;50.988;11.034;2023-12-29T07:12:22;25.07;;;15.60;;
83263;SDS011;73156;50.988;11.034;2023-12-29T07:14:47;20.83;;;14.60;;
83263;SDS011;73156;50.988;11.034;2023-12-29T07:17:13;21.77;;;14.77;;
83263;SDS011;73156;50.988;11.034;2023-12-29T07:19:38;23.37;;;15.27;;
83263;SDS011;73156;50.988;11.034;2023-12-29T07:22:03;22.90;;;15.50;;
83263;SDS011;73156;50.988;11.034;2023-12-29T07:24:32;23.15;;;15.45;;
83263;SDS011;73156;50.988;11.034;2023-12-29T07:26:58;22.40;;;15.27;;
83263;SDS011;73156;50.988;11.034;2023-12-29T07:29:23;22.70;;;14.80;;
83263;SDS011;73156;50.988;11.034;2023-12-29T07:31:48;22.10;;;14.23;;
83263;SDS011;73156;50.988;11.034;2023-12-29T07:34:14;24.10;;;15.50;;
83263;SDS011;73156;50.988;11.034;2023-12-29T07:36:39;21.87;;;14.10;;
83263;SDS011;73156;50.988;11.034;2023-12-29T07:39:05;21.50;;;14.77;;
83263;SDS011;73156;50.988;11.034;2023-12-29T07:41:30;20.85;;;14.55;;
83263;SDS011;73156;50.988;11.034;2023-12-29T07:43:56;21.37;;;14.87;;
83263;SDS011;73156;50.988;11.034;2023-12-29T07:46:24;22.70;;;15.37;;
83263;SDS011;73156;50.988;11.034;2023-12-29T07:48:51;21.05;;;14.45;;
83263;SDS011;73156;50.988;11.034;2023-12-29T07:51:17;20.98;;;14.45;;
83263;SDS011;73156;50.988;11.034;2023-12-29T07:53:42;22.27;;;15.68;;
83263;SDS011;73156;50.988;11.034;2023-12-29T07:56:08;21.83;;;14.53;;
83263;SDS011;73156;50.988;11.034;2023-12-29T07:58:35;20.25;;;14.57;;
83263;SDS011;73156;50.988;11.034;2023-12-29T08:01:00;21.27;;;14.27;;
83263;SDS011;73156;50.988;11.034;2023-12-29T08:03:25;21.73;;;14.37;;
83263;SDS011;73156;50.988;11.034;2023-12-29T08:05:51;20.70;;;13.85;;
83263;SDS011;73156;50.988;11.034;2023-12-29T08:08:17;21.70;;;14.40;;
83263;SDS011;73156;50.988;11.034;2023-12-29T08:10:42;19.43;;;13.77;;
83263;SDS011;73156;50.988;11.034;2023-12-29T08:13:07;20.00;;;13.80;;
83263;SDS011;73156;50.988;11.034;2023-12-29T08:15:34;20.90;;;13.77;;
83263;SDS011;73156;50.988;11.034;2023-12-29T08:18:00;20.92;;;14.43;;
83263;SDS011;73156;50.988;11.034;2023-12-29T08:20:25;21.70;;;14.43;;
83263;SDS011;73156;50.988;11.034;2023-12-29T08:22:50;23.55;;;15.15;;
83263;SDS011;73156;50.988;11.034;2023-12-29T08:25:16;19.73;;;13.65;;
83263;SDS011;73156;50.988;11.034;2023-12-29T08:27:41;19.58;;;14.35;;
83263;SDS011;73156;50.988;11.034;2023-12-29T08:30:07;19.10;;;13.43;;
83263;SDS011;73156;50.988;11.034;2023-12-29T08:32:33;18.92;;;12.48;;
83263;SDS011;73156;50.988;11.034;2023-12-29T08:34:58;20.73;;;14.63;;
83263;SDS011;73156;50.988;11.034;2023-12-29T08:37:23;19.60;;;14.05;;
83263;SDS011;73156;50.988;11.034;2023-12-29T08:39:49;18.90;;;13.67;;
83263;SDS011;73156;50.988;11.034;2023-12-29T08:42:14;19.93;;;13.67;;
83263;SDS011;73156;50.988;11.034;2023-12-29T08:44:40;18.70;;;13.95;;
83263;SDS011;73156;50.988;11.034;2023-12-29T08:47:05;21.05;;;13.88;;
83263;SDS011;73156;50.988;11.034;2023-12-29T08:49:33;20.80;;;14.25;;
83263;SDS011;73156;50.988;11.034;2023-12-29T08:52:02;21.63;;;14.25;;
83263;SDS011;73156;50.988;11.034;2023-12-29T08:54:27;22.35;;;14.98;;
83263;SDS011;73156;50.988;11.034;2023-12-29T08:56:52;19.00;;;13.70;;
83263;SDS011;73156;50.988;11.034;2023-12-29T08:59:18;21.83;;;14.38;;
83263;SDS011;73156;50.988;11.034;2023-12-29T09:01:43;19.67;;;13.77;;
83263;SDS011;73156;50.988;11.034;2023-12-29T09:04:08;19.47;;;13.50;;
83263;SDS011;73156;50.988;11.034;2023-12-29T09:06:33;20.43;;;14.20;;
83263;SDS011;73156;50.988;11.034;2023-12-29T09:08:59;20.17;;;13.77;;
83263;SDS011;73156;50.988;11.034;2023-12-29T09:11:24;20.70;;;13.95;;
83263;SDS011;73156;50.988;11.034;2023-12-29T09:13:51;18.45;;;12.38;;
83263;SDS011;73156;50.988;11.034;2023-12-29T09:16:16;20.65;;;15.10;;
83263;SDS011;73156;50.988;11.034;2023-12-29T09:18:42;20.67;;;14.47;;
83263;SDS011;73156;50.988;11.034;2023-12-29T09:21:07;17.67;;;13.50;;
83263;SDS011;73156;50.988;11.034;2023-12-29T09:23:32;20.20;;;14.40;;
83263;SDS011;73156;50.988;11.034;2023-12-29T09:25:58;20.02;;;14.35;;
83263;SDS011;73156;50.988;11.034;2023-12-29T09:28:24;19.95;;;14.15;;
83263;SDS011;73156;50.988;11.034;2023-12-29T09:30:49;20.20;;;14.07;;
83263;SDS011;73156;50.988;11.034;2023-12-29T09:33:15;19.77;;;13.77;;
83263;SDS011;73156;50.988;11.034;2023-12-29T09:35:40;19.83;;;14.07;;
83263;SDS011;73156;50.988;11.034;2023-12-29T09:38:05;20.97;;;14.73;;
83263;SDS011;73156;50.988;11.034;2023-12-29T09:40:31;21.17;;;14.60;;
83263;SDS011;73156;50.988;11.034;2023-12-29T09:42:56;20.55;;;14.38;;
83263;SDS011;73156;50.988;11.034;2023-12-29T09:45:25;20.45;;;14.63;;
83263;SDS011;73156;50.988;11.034;2023-12-29T09:47:51;20.85;;;14.85;;
83263;SDS011;73156;50.988;11.034;2023-12-29T09:50:20;20.48;;;13.68;;
83263;SDS011;73156;50.988;11.034;2023-12-29T09:52:47;20.05;;;13.85;;
83263;SDS011;73156;50.988;11.034;2023-12-29T09:55:14;19.73;;;13.65;;
83263;SDS011;73156;50.988;11.034;2023-12-29T09:57:40;21.60;;;14.35;;
83263;SDS011;73156;50.988;11.034;2023-12-29T10:00:06;21.45;;;14.35;;
83263;SDS011;73156;50.988;11.034;2023-12-29T10:02:35;23.45;;;15.10;;
83263;SDS011;73156;50.988;11.034;2023-12-29T10:05:01;19.10;;;13.27;;
83263;SDS011;73156;50.988;11.034;2023-12-29T10:07:28;22.23;;;15.52;;
83263;SDS011;73156;50.988;11.034;2023-12-29T10:10:00;21.67;;;15.07;;
83263;SDS011;73156;50.988;11.034;2023-12-29T10:12:26;21.58;;;14.43;;
83263;SDS011;73156;50.988;11.034;2023-12-29T10:15:06;21.13;;;15.35;;
83263;SDS011;73156;50.988;11.034;2023-12-29T10:20:38;19.52;;;14.40;;
83263;SDS011;73156;50.988;11.034;2023-12-29T10:23:20;20.08;;;14.93;;
83263;SDS011;73156;50.988;11.034;2023-12-29T10:25:51;21.13;;;15.38;;
83263;SDS011;73156;50.988;11.034;2023-12-29T10:28:17;24.60;;;16.02;;
83263;SDS011;73156;50.988;11.034;2023-12-29T10:30:43;22.85;;;15.15;;
83263;SDS011;73156;50.988;11.034;2023-12-29T10:33:08;21.42;;;15.90;;
83263;SDS011;73156;50.988;11.034;2023-12-29T10:35:35;21.25;;;15.52;;
83263;SDS011;73156;50.988;11.034;2023-12-29T10:38:09;22.48;;;15.77;;
83263;SDS011;73156;50.988;11.034;2023-12-29T10:40:35;24.85;;;16.75;;
83263;SDS011;73156;50.988;11.034;2023-12-29T10:43:00;24.73;;;17.63;;
83263;SDS011;73156;50.988;11.034;2023-12-29T10:45:31;23.25;;;17.05;;
83263;SDS011;73156;50.988;11.034;2023-12-29T10:47:57;23.33;;;16.63;;
83263;SDS011;73156;50.988;11.034;2023-12-29T10:50:25;24.33;;;16.77;;
83263;SDS011;73156;50.988;11.034;2023-12-29T10:52:50;25.85;;;17.67;;
83263;SDS011;73156;50.988;11.034;2023-12-29T10:55:15;23.83;;;17.70;;
83263;SDS011;73156;50.988;11.034;2023-12-29T10:57:40;25.48;;;17.38;;
83263;SDS011;73156;50.988;11.034;2023-12-29T11:00:07;23.85;;;17.67;;
83263;SDS011;73156;50.988;11.034;2023-12-29T11:02:33;25.98;;;17.00;;
83263;SDS011;73156;50.988;11.034;2023-12-29T11:07:33;25.83;;;17.67;;
83263;SDS011;73156;50.988;11.034;2023-12-29T11:10:03;22.92;;;16.60;;
83263;SDS011;73156;50.988;11.034;2023-12-29T11:12:30;23.30;;;17.17;;
83263;SDS011;73156;50.988;11.034;2023-12-29T11:14:57;25.38;;;17.45;;
83263;SDS011;73156;50.988;11.034;2023-12-29T11:17:23;27.17;;;18.02;;
83263;SDS011;73156;50.988;11.034;2023-12-29T11:22:17;27.20;;;19.25;;
83263;SDS011;73156;50.988;11.034;2023-12-29T11:24:44;26.40;;;18.35;;
83263;SDS011;73156;50.988;11.034;2023-12-29T11:27:11;24.33;;;17.77;;
83263;SDS011;73156;50.988;11.034;2023-12-29T11:29:37;27.17;;;18.98;;
83263;SDS011;73156;50.988;11.034;2023-12-29T11:32:06;24.65;;;17.75;;
83263;SDS011;73156;50.988;11.034;2023-12-29T11:34:38;27.48;;;18.70;;
83263;SDS011;73156;50.988;11.034;2023-12-29T11:39:47;30.25;;;19.75;;
83263;SDS011;73156;50.988;11.034;2023-12-29T11:42:19;26.27;;;18.35;;
83263;SDS011;73156;50.988;11.034;2023-12-29T11:44:47;28.33;;;19.02;;
83263;SDS011;73156;50.988;11.034;2023-12-29T11:50:01;27.17;;;19.33;;
83263;SDS011;73156;50.988;11.034;2023-12-29T11:52:37;28.23;;;20.13;;
83263;SDS011;73156;50.988;11.034;2023-12-29T11:55:07;27.30;;;19.63;;
83263;SDS011;73156;50.988;11.034;2023-12-29T11:57:33;27.48;;;19.20;;
83263;SDS011;73156;50.988;11.034;2023-12-29T11:59:58;29.35;;;20.17;;
83263;SDS011;73156;50.988;11.034;2023-12-29T12:02:27;29.40;;;19.75;;
83263;SDS011;73156;50.988;11.034;2023-12-29T12:04:55;29.70;;;19.65;;
83263;SDS011;73156;50.988;11.034;2023-12-29T12:09:49;27.33;;;19.65;;
83263;SDS011;73156;50.988;11.034;2023-12-29T12:12:37;27.42;;;19.50;;
83263;SDS011;73156;50.988;11.034;2023-12-29T12:17:53;27.73;;;19.67;;
83263;SDS011;73156;50.988;11.034;2023-12-29T12:20:19;28.52;;;20.42;;
83263;SDS011;73156;50.988;11.034;2023-12-29T12:22:45;30.00;;;19.98;;
83263;SDS011;73156;50.988;11.034;2023-12-29T12:25:15;29.83;;;20.55;;
83263;SDS011;73156;50.988;11.034;2023-12-29T12:27:40;25.80;;;19.05;;
83263;SDS011;73156;50.988;11.034;2023-12-29T12:30:06;26.90;;;19.88;;
83263;SDS011;73156;50.988;11.034;2023-12-29T12:32:34;29.15;;;19.90;;
83263;SDS011;73156;50.988;11.034;2023-12-29T12:35:00;28.20;;;19.88;;
83263;SDS011;73156;50.988;11.034;2023-12-29T12:37:26;27.85;;;19.17;;
83263;SDS011;73156;50.988;11.034;2023-12-29T12:39:52;29.50;;;19.45;;
83263;SDS011;73156;50.988;11.034;2023-12-29T12:42:21;28.15;;;19.83;;
83263;SDS011;73156;50.988;11.034;2023-12-29T12:44:54;29.23;;;20.58;;
83263;SDS011;73156;50.988;11.034;2023-12-29T12:47:31;26.73;;;19.67;;
83263;SDS011;73156;50.988;11.034;2023-12-29T12:49:59;28.50;;;19.20;;
83263;SDS011;73156;50.988;11.034;2023-12-29T12:52:25;29.30;;;20.05;;
83263;SDS011;73156;50.988;11.034;2023-12-29T12:54:55;27.05;;;19.20;;
83263;SDS011;73156;50.988;11.034;2023-12-29T12:57:20;27.27;;;18.75;;
83263;SDS011;73156;50.988;11.034;2023-12-29T12:59:46;27.05;;;18.90;;
83263;SDS011;73156;50.988;11.034;2023-12-29T13:02:13;25.88;;;18.40;;
83263;SDS011;73156;50.988;11.034;2023-12-29T13:04:40;25.85;;;18.95;;
83263;SDS011;73156;50.988;11.034;2023-12-29T13:07:06;29.85;;;20.38;;
83263;SDS011;73156;50.988;11.034;2023-12-29T13:09:33;28.38;;;19.63;;
83263;SDS011;73156;50.988;11.034;2023-12-29T13:12:08;27.05;;;19.50;;
83263;SDS011;73156;50.988;11.034;2023-12-29T13:14:36;27.80;;;19.55;;
83263;SDS011;73156;50.988;11.034;2023-12-29T13:17:06;28.23;;;18.95;;
83263;SDS011;73156;50.988;11.034;2023-12-29T13:19:32;27.90;;;20.00;;
83263;SDS011;73156;50.988;11.034;2023-12-29T13:21:59;25.85;;;18.30;;
83263;SDS011;73156;50.988;11.034;2023-12-29T13:24:25;26.55;;;18.90;;
83263;SDS011;73156;50.988;11.034;2023-12-29T13:26:51;27.08;;;19.23;;
83263;SDS011;73156;50.988;11.034;2023-12-29T13:29:19;26.63;;;18.58;;
83263;SDS011;73156;50.988;11.034;2023-12-29T13:31:47;24.80;;;17.65;;
83263;SDS011;73156;50.988;11.034;2023-12-29T13:34:19;26.65;;;19.10;;
83263;SDS011;73156;50.988;11.034;2023-12-29T13:39:27;27.05;;;19.08;;
83263;SDS011;73156;50.988;11.034;2023-12-29T13:41:56;27.17;;;18.45;;
83263;SDS011;73156;50.988;11.034;2023-12-29T13:44:24;25.95;;;18.92;;
83263;SDS011;73156;50.988;11.034;2023-12-29T13:46:52;25.70;;;18.00;;
83263;SDS011;73156;50.988;11.034;2023-12-29T13:49:18;26.20;;;18.23;;
83263;SDS011;73156;50.988;11.034;2023-12-29T13:51:44;24.55;;;18.63;;
83263;SDS011;73156;50.988;11.034;2023-12-29T13:54:09;25.55;;;17.70;;
83263;SDS011;73156;50.988;11.034;2023-12-29T13:56:34;23.93;;;17.33;;
83263;SDS011;73156;50.988;11.034;2023-12-29T13:59:00;26.00;;;18.35;;
83263;SDS011;73156;50.988;11.034;2023-12-29T14:01:34;27.27;;;18.83;;
83263;SDS011;73156;50.988;11.034;2023-12-29T14:03:59;25.95;;;18.05;;
83263;SDS011;73156;50.988;11.034;2023-12-29T14:06:32;25.30;;;18.02;;
83263;SDS011;73156;50.988;11.034;2023-12-29T14:09:07;25.20;;;17.70;;
83263;SDS011;73156;50.988;11.034;2023-12-29T14:11:43;27.00;;;18.02;;
83263;SDS011;73156;50.988;11.034;2023-12-29T14:14:09;24.27;;;18.08;;
83263;SDS011;73156;50.988;11.034;2023-12-29T14:16:38;25.95;;;18.13;;
83263;SDS011;73156;50.988;11.034;2023-12-29T14:19:04;24.55;;;17.20;;
83263;SDS011;73156;50.988;11.034;2023-12-29T14:21:31;25.77;;;18.02;;
83263;SDS011;73156;50.988;11.034;2023-12-29T14:24:01;25.58;;;17.90;;
83263;SDS011;73156;50.988;11.034;2023-12-29T14:29:09;25.33;;;17.33;;
83263;SDS011;73156;50.988;11.034;2023-12-29T14:31:38;24.73;;;17.75;;
83263;SDS011;73156;50.988;11.034;2023-12-29T14:34:06;27.02;;;17.80;;
83263;SDS011;73156;50.988;11.034;2023-12-29T14:36:33;24.05;;;17.00;;
83263;SDS011;73156;50.988;11.034;2023-12-29T14:38:59;26.70;;;18.58;;